Time;durP1;ratioP1;P1;durP2;ratioP2;P2;SDS_P1;SDS_P2;PMS_P1;PMS_P2;Temp;Humidity;BMP_temperature;BMP_pressure;BME280_temperature;BME280_humidity;BME280_pressure;Samples;Min_cycle;Max_cycle;Signal;HPM_P1;HPM_P2
2022/01/13 00:01:39;;;;;;;181.25;81.45;;;;;;;;;;5063556;28;20055;-41
2022/01/13 00:04:05;;;;;;;192.63;87.32;;;;;;;;;;5063615;28;20024;-40
2022/01/13 00:06:32;;;;;;;182.13;86.20;;;;;;;;;;5073438;28;20060;-40
2022/01/13 00:09:00;;;;;;;171.88;79.63;;;;;;;;;;5063413;28;20593;-40
2022/01/13 00:11:26;;;;;;;170.77;76.55;;;;;;;;;;5064620;28;20016;-42
2022/01/13 00:14:20;;;;;;;152.95;72.43;;;;;;;;;;5063187;28;20130;-42
2022/01/13 00:16:44;;;;;;;156.88;70.53;;;;;;;;;;5063167;28;20028;-43
2022/01/13 00:21:50;;;;;;;194.60;90.85;;;;;;;;;;5063805;28;20591;-41
2022/01/13 00:24:19;;;;;;;178.63;85.43;;;;;;;;;;5064053;28;20051;-43
2022/01/13 00:26:47;;;;;;;199.20;94.97;;;;;;;;;;5063704;28;20501;-42
2022/01/13 00:29:13;;;;;;;172.57;79.20;;;;;;;;;;5067333;28;20048;-40
2022/01/13 00:31:41;;;;;;;159.00;73.88;;;;;;;;;;5093952;28;20046;-39
2022/01/13 00:34:08;;;;;;;152.82;70.07;;;;;;;;;;5093721;28;20100;-41
2022/01/13 00:36:38;;;;;;;143.48;69.43;;;;;;;;;;5093773;28;20024;-41
2022/01/13 00:39:08;;;;;;;131.55;61.50;;;;;;;;;;5093653;28;20020;-41
2022/01/13 00:41:36;;;;;;;125.80;58.53;;;;;;;;;;5093732;28;20028;-40
2022/01/13 00:44:04;;;;;;;147.60;66.72;;;;;;;;;;5093812;28;20024;-41
2022/01/13 00:46:41;;;;;;;134.80;60.95;;;;;;;;;;5093648;28;20036;-40
2022/01/13 00:49:07;;;;;;;147.68;67.03;;;;;;;;;;5093485;28;20039;-41
2022/01/13 00:51:33;;;;;;;171.82;77.90;;;;;;;;;;5093739;28;20035;-41
2022/01/13 00:54:04;;;;;;;157.32;70.85;;;;;;;;;;5093438;28;20051;-40
2022/01/13 00:56:32;;;;;;;160.60;73.30;;;;;;;;;;5093374;28;20075;-41
2022/01/13 00:58:58;;;;;;;154.50;72.18;;;;;;;;;;5093502;28;20028;-41
2022/01/13 01:01:25;;;;;;;148.93;70.72;;;;;;;;;;5093484;28;20024;-41
2022/01/13 01:03:51;;;;;;;148.27;67.25;;;;;;;;;;5093347;28;20481;-47
2022/01/13 01:06:17;;;;;;;148.45;67.72;;;;;;;;;;5093562;28;20035;-41
2022/01/13 01:08:43;;;;;;;144.40;66.57;;;;;;;;;;5093232;28;20024;-40
2022/01/13 01:11:10;;;;;;;152.20;72.70;;;;;;;;;;5093332;28;20023;-43
2022/01/13 01:13:38;;;;;;;174.98;79.72;;;;;;;;;;5093636;28;20028;-40
2022/01/13 01:16:09;;;;;;;173.70;81.30;;;;;;;;;;5093441;28;20020;-40
2022/01/13 01:23:58;;;;;;;157.48;69.88;;;;;;;;;;5093483;28;20028;-42
2022/01/13 01:29:22;;;;;;;145.93;64.88;;;;;;;;;;5093129;28;20056;-41
2022/01/13 01:31:51;;;;;;;141.25;61.58;;;;;;;;;;5094960;28;20028;-40
2022/01/13 01:36:48;;;;;;;125.25;60.22;;;;;;;;;;5097346;28;20458;-43
2022/01/13 01:39:15;;;;;;;119.45;55.92;;;;;;;;;;5097427;28;20024;-40
2022/01/13 01:41:42;;;;;;;122.85;56.40;;;;;;;;;;5097292;28;20042;-41
2022/01/13 01:44:13;;;;;;;108.70;51.92;;;;;;;;;;5097179;28;20077;-40
2022/01/13 01:46:45;;;;;;;117.67;53.07;;;;;;;;;;5097168;28;20067;-39
2022/01/13 01:49:16;;;;;;;107.43;49.83;;;;;;;;;;5097121;28;20256;-40
2022/01/13 01:51:43;;;;;;;106.55;49.75;;;;;;;;;;5096981;28;20032;-40
2022/01/13 01:54:09;;;;;;;106.95;48.17;;;;;;;;;;5096995;28;20020;-40
2022/01/13 01:56:39;;;;;;;96.32;45.70;;;;;;;;;;5096914;28;20028;-40
2022/01/13 01:59:12;;;;;;;95.13;44.72;;;;;;;;;;5096846;28;20024;-41
2022/01/13 02:01:38;;;;;;;103.63;45.90;;;;;;;;;;5096783;28;20478;-40
2022/01/13 02:04:04;;;;;;;113.97;53.30;;;;;;;;;;5096671;28;20039;-40
2022/01/13 02:06:30;;;;;;;97.90;46.70;;;;;;;;;;5096628;28;20071;-41
2022/01/13 02:08:56;;;;;;;102.65;47.55;;;;;;;;;;5096757;28;20046;-41
2022/01/13 02:11:24;;;;;;;108.80;49.08;;;;;;;;;;5096584;28;20024;-42
2022/01/13 02:13:53;;;;;;;113.80;53.70;;;;;;;;;;5096569;28;20024;-40
2022/01/13 02:19:00;;;;;;;94.50;46.35;;;;;;;;;;5096580;28;20504;-40
2022/01/13 02:21:27;;;;;;;100.80;46.45;;;;;;;;;;5096364;28;20383;-41
2022/01/13 02:23:54;;;;;;;96.50;45.65;;;;;;;;;;5096341;28;20024;-41
2022/01/13 02:26:21;;;;;;;100.03;46.15;;;;;;;;;;5096130;28;20482;-41
2022/01/13 02:28:48;;;;;;;86.97;42.88;;;;;;;;;;5096106;28;20126;-40
2022/01/13 02:31:14;;;;;;;89.15;41.63;;;;;;;;;;5096360;28;20073;-41
2022/01/13 02:33:40;;;;;;;89.47;43.90;;;;;;;;;;5096153;28;20099;-41
2022/01/13 02:36:07;;;;;;;97.40;43.80;;;;;;;;;;5096215;28;20151;-41
2022/01/13 02:38:33;;;;;;;81.90;41.00;;;;;;;;;;5096053;28;20031;-41
2022/01/13 02:41:00;;;;;;;85.10;41.65;;;;;;;;;;5095982;28;20498;-41
2022/01/13 02:43:29;;;;;;;96.65;44.85;;;;;;;;;;5095663;28;20066;-41
2022/01/13 02:48:30;;;;;;;89.45;41.60;;;;;;;;;;5095976;28;20025;-40
2022/01/13 02:51:00;;;;;;;87.60;39.22;;;;;;;;;;5095978;28;20024;-40
2022/01/13 02:53:26;;;;;;;87.90;39.63;;;;;;;;;;5095871;28;20043;-41
2022/01/13 02:56:04;;;;;;;83.53;41.60;;;;;;;;;;5095614;28;20020;-40
2022/01/13 02:58:33;;;;;;;89.32;41.90;;;;;;;;;;5095975;28;20141;-40
2022/01/13 03:01:00;;;;;;;76.30;37.22;;;;;;;;;;5095834;28;20013;-41
2022/01/13 03:03:27;;;;;;;84.03;40.33;;;;;;;;;;5095722;28;20469;-41
2022/01/13 03:05:53;;;;;;;86.55;39.45;;;;;;;;;;5095484;28;20039;-40
2022/01/13 03:08:19;;;;;;;83.18;37.85;;;;;;;;;;5095516;28;20020;-41
2022/01/13 03:10:48;;;;;;;83.90;39.50;;;;;;;;;;5095767;28;20034;-41
2022/01/13 03:13:17;;;;;;;79.72;38.92;;;;;;;;;;5094467;28;20024;-40
2022/01/13 03:15:43;;;;;;;86.28;40.58;;;;;;;;;;5095483;28;20024;-41
2022/01/13 03:18:11;;;;;;;83.70;39.63;;;;;;;;;;5095431;28;20103;-41
2022/01/13 03:20:37;;;;;;;80.38;38.42;;;;;;;;;;5095225;28;20039;-40
2022/01/13 03:23:04;;;;;;;84.05;39.53;;;;;;;;;;5095062;28;20024;-41
2022/01/13 03:25:30;;;;;;;87.68;41.45;;;;;;;;;;5095331;28;20032;-40
2022/01/13 03:28:04;;;;;;;84.38;40.92;;;;;;;;;;5095199;28;20571;-42
2022/01/13 03:30:30;;;;;;;92.07;42.75;;;;;;;;;;5095134;28;20486;-41
2022/01/13 03:32:56;;;;;;;94.78;43.33;;;;;;;;;;5095170;28;20024;-41
2022/01/13 03:35:22;;;;;;;96.40;43.25;;;;;;;;;;5094928;28;20048;-41
2022/01/13 03:37:48;;;;;;;101.70;46.28;;;;;;;;;;5094927;28;20028;-40
2022/01/13 03:40:14;;;;;;;129.50;51.95;;;;;;;;;;5095185;28;20027;-40
2022/01/13 03:42:43;;;;;;;125.20;52.42;;;;;;;;;;5095096;28;20398;-41
2022/01/13 03:45:09;;;;;;;148.93;56.88;;;;;;;;;;5094763;28;20016;-41
2022/01/13 03:47:35;;;;;;;141.88;55.58;;;;;;;;;;5094797;28;20043;-42
2022/01/13 03:50:01;;;;;;;144.13;54.83;;;;;;;;;;5094763;28;20077;-41
2022/01/13 03:52:51;;;;;;;147.50;55.25;;;;;;;;;;5094756;28;20055;-41
2022/01/13 03:55:36;;;;;;;149.20;54.40;;;;;;;;;;5093642;28;20031;-41
2022/01/13 03:58:21;;;;;;;138.35;52.83;;;;;;;;;;5094637;28;20050;-41
2022/01/13 04:01:05;;;;;;;133.02;53.75;;;;;;;;;;5094445;28;20059;-41
2022/01/13 04:03:31;;;;;;;132.05;51.60;;;;;;;;;;5094745;28;20055;-41
2022/01/13 04:06:02;;;;;;;111.45;45.15;;;;;;;;;;5094252;28;20359;-40
2022/01/13 04:08:31;;;;;;;94.13;42.80;;;;;;;;;;5094439;28;20024;-40
2022/01/13 04:11:11;;;;;;;99.47;43.72;;;;;;;;;;5094281;28;20510;-40
2022/01/13 04:16:12;;;;;;;87.90;41.42;;;;;;;;;;5094270;28;20276;-40
2022/01/13 04:18:38;;;;;;;94.88;44.17;;;;;;;;;;5094355;28;20606;-44
2022/01/13 04:21:04;;;;;;;92.15;43.45;;;;;;;;;;5094211;28;20050;-40
2022/01/13 04:23:32;;;;;;;100.13;47.10;;;;;;;;;;5094210;28;20028;-43
2022/01/13 04:25:58;;;;;;;121.63;53.15;;;;;;;;;;5093951;28;20385;-42
2022/01/13 04:28:28;;;;;;;113.95;52.05;;;;;;;;;;5094000;28;20798;-43
2022/01/13 04:31:04;;;;;;;111.00;51.95;;;;;;;;;;5094060;28;20035;-45
2022/01/13 04:33:31;;;;;;;135.07;63.83;;;;;;;;;;5094183;28;20016;-41
2022/01/13 04:35:58;;;;;;;129.40;60.85;;;;;;;;;;5094078;28;20085;-44
2022/01/13 04:38:24;;;;;;;138.10;64.10;;;;;;;;;;5094077;28;20032;-41
2022/01/13 04:40:55;;;;;;;129.70;59.90;;;;;;;;;;5093933;28;20028;-42
2022/01/13 04:43:22;;;;;;;151.98;68.45;;;;;;;;;;5094003;28;20030;-40
2022/01/13 04:45:49;;;;;;;142.20;63.80;;;;;;;;;;5093710;28;20036;-40
2022/01/13 04:48:15;;;;;;;155.98;69.72;;;;;;;;;;5093954;28;20028;-49
2022/01/13 04:50:42;;;;;;;170.75;75.68;;;;;;;;;;5093700;28;20028;-47
2022/01/13 04:53:08;;;;;;;166.07;78.65;;;;;;;;;;5093613;28;20016;-41
2022/01/13 04:55:36;;;;;;;160.55;71.38;;;;;;;;;;5093584;28;20020;-40
2022/01/13 04:58:03;;;;;;;139.38;62.25;;;;;;;;;;5093517;28;20036;-40
2022/01/13 05:00:29;;;;;;;138.10;60.63;;;;;;;;;;5093670;28;20663;-42
2022/01/13 05:02:56;;;;;;;149.18;63.33;;;;;;;;;;5093889;28;20031;-48
2022/01/13 05:05:22;;;;;;;129.00;55.95;;;;;;;;;;5092437;28;20035;-40
2022/01/13 05:07:49;;;;;;;120.28;53.72;;;;;;;;;;5093397;28;20028;-40
2022/01/13 05:10:15;;;;;;;115.13;52.13;;;;;;;;;;5093400;28;20100;-40
2022/01/13 05:12:44;;;;;;;115.45;53.00;;;;;;;;;;5093739;28;20393;-40
2022/01/13 05:15:15;;;;;;;104.05;49.88;;;;;;;;;;5093661;28;20099;-41
2022/01/13 05:18:02;;;;;;;;;;;;;;;;;;5093842;28;20493;-38
2022/01/13 05:20:56;;;;;;;105.20;47.10;;;;;;;;;;5093290;28;20002;-39
2022/01/13 05:23:15;;;;;;;119.35;55.78;;;;;;;;;;5092984;28;20032;-39
2022/01/13 05:25:42;;;;;;;214.63;83.60;;;;;;;;;;5093285;28;20024;-39
2022/01/13 05:28:10;;;;;;;211.40;91.30;;;;;;;;;;5093312;28;20044;-40
2022/01/13 05:30:36;;;;;;;208.73;93.70;;;;;;;;;;5093400;28;20107;-39
2022/01/13 05:33:02;;;;;;;197.95;84.90;;;;;;;;;;5093170;28;20040;-40
2022/01/13 05:35:29;;;;;;;165.93;72.93;;;;;;;;;;5093303;28;20024;-40
2022/01/13 05:37:57;;;;;;;157.05;69.00;;;;;;;;;;5093236;28;20032;-40
2022/01/13 05:40:23;;;;;;;148.10;67.18;;;;;;;;;;5093322;28;20035;-39
2022/01/13 05:42:50;;;;;;;119.07;54.67;;;;;;;;;;5093628;28;20028;-40
2022/01/13 05:45:18;;;;;;;108.18;51.92;;;;;;;;;;5091882;28;20027;-42
2022/01/13 05:47:46;;;;;;;103.22;48.55;;;;;;;;;;5093573;28;20032;-48
2022/01/13 05:50:12;;;;;;;109.53;49.80;;;;;;;;;;5093006;28;20024;-41
2022/01/13 05:52:39;;;;;;;110.80;50.25;;;;;;;;;;5093308;28;20073;-42
2022/01/13 05:55:05;;;;;;;119.80;54.45;;;;;;;;;;5093306;28;20085;-42
2022/01/13 05:57:32;;;;;;;114.75;54.15;;;;;;;;;;5093173;28;20044;-44
2022/01/13 05:59:58;;;;;;;127.32;59.30;;;;;;;;;;5093072;28;20021;-41
2022/01/13 06:02:24;;;;;;;133.88;61.33;;;;;;;;;;5092976;28;20028;-42
2022/01/13 06:04:50;;;;;;;136.20;60.72;;;;;;;;;;5092806;28;20092;-43
2022/01/13 06:07:17;;;;;;;121.20;56.65;;;;;;;;;;5092836;28;20029;-42
2022/01/13 06:09:44;;;;;;;141.27;64.63;;;;;;;;;;5092946;28;20462;-41
2022/01/13 06:12:10;;;;;;;221.73;99.03;;;;;;;;;;5093091;28;20035;-41
2022/01/13 06:14:36;;;;;;;183.18;85.38;;;;;;;;;;5092812;28;20085;-41
2022/01/13 06:17:02;;;;;;;140.13;67.70;;;;;;;;;;5092707;28;20035;-43
2022/01/13 06:19:28;;;;;;;149.82;67.97;;;;;;;;;;5095247;28;20020;-41
2022/01/13 06:21:54;;;;;;;150.38;69.63;;;;;;;;;;5096512;28;20038;-40
2022/01/13 06:24:20;;;;;;;161.85;77.90;;;;;;;;;;5096632;28;20031;-40
2022/01/13 06:26:49;;;;;;;251.27;122.80;;;;;;;;;;5096452;28;20043;-41
2022/01/13 06:29:15;;;;;;;369.70;177.10;;;;;;;;;;5096227;28;20047;-40
2022/01/13 06:31:41;;;;;;;408.67;185.07;;;;;;;;;;5096593;28;20077;-40
2022/01/13 06:34:07;;;;;;;373.52;157.07;;;;;;;;;;5096536;28;20024;-42
2022/01/13 06:36:33;;;;;;;439.10;177.52;;;;;;;;;;5096131;28;20024;-41
2022/01/13 06:39:00;;;;;;;469.33;183.82;;;;;;;;;;5096011;28;20016;-41
2022/01/13 06:41:26;;;;;;;304.17;119.05;;;;;;;;;;5095889;28;20458;-41
2022/01/13 06:43:52;;;;;;;313.30;117.38;;;;;;;;;;5096000;28;20077;-41
2022/01/13 06:46:18;;;;;;;613.97;236.85;;;;;;;;;;5095915;28;20119;-41
2022/01/13 06:48:48;;;;;;;1073.85;460.30;;;;;;;;;;5096202;28;20047;-41
2022/01/13 06:51:16;;;;;;;1195.82;487.20;;;;;;;;;;5095786;28;20024;-40
2022/01/13 06:53:42;;;;;;;1196.95;451.00;;;;;;;;;;5095887;28;20017;-41
2022/01/13 06:56:08;;;;;;;860.60;314.83;;;;;;;;;;5095719;28;20032;-42
2022/01/13 06:58:34;;;;;;;691.72;243.75;;;;;;;;;;5095823;28;20058;-41
2022/01/13 07:01:00;;;;;;;561.95;200.38;;;;;;;;;;5095914;28;20020;-41
2022/01/13 07:03:26;;;;;;;453.05;145.13;;;;;;;;;;5095676;28;20027;-41
2022/01/13 07:05:53;;;;;;;446.00;138.57;;;;;;;;;;5095383;28;20031;-41
2022/01/13 07:08:19;;;;;;;281.83;99.28;;;;;;;;;;5095566;28;20024;-41
2022/01/13 07:10:47;;;;;;;236.95;92.55;;;;;;;;;;5095587;28;20028;-41
2022/01/13 07:13:13;;;;;;;216.55;88.40;;;;;;;;;;5095790;28;20024;-41
2022/01/13 07:15:39;;;;;;;201.65;88.10;;;;;;;;;;5095569;28;20485;-42
2022/01/13 07:18:05;;;;;;;181.25;82.32;;;;;;;;;;5095438;28;20028;-42
2022/01/13 07:20:31;;;;;;;172.65;77.10;;;;;;;;;;5095322;28;20032;-42
2022/01/13 07:22:58;;;;;;;174.45;79.38;;;;;;;;;;5095255;28;20031;-41
2022/01/13 07:25:24;;;;;;;151.70;72.43;;;;;;;;;;5095262;28;20024;-42
2022/01/13 07:27:50;;;;;;;148.38;71.20;;;;;;;;;;5093690;28;20032;-42
2022/01/13 07:30:16;;;;;;;141.98;70.63;;;;;;;;;;5095195;28;20115;-43
2022/01/13 07:32:42;;;;;;;146.82;72.43;;;;;;;;;;5095229;28;20071;-44
2022/01/13 07:35:09;;;;;;;129.93;66.57;;;;;;;;;;5093958;28;20047;-45
2022/01/13 07:37:35;;;;;;;122.15;60.25;;;;;;;;;;5095207;28;20381;-41
2022/01/13 07:40:01;;;;;;;121.75;61.72;;;;;;;;;;5095266;28;20031;-41
2022/01/13 07:42:28;;;;;;;122.30;61.70;;;;;;;;;;5095233;28;20027;-41
2022/01/13 07:44:54;;;;;;;116.47;59.75;;;;;;;;;;5094999;28;20036;-41
2022/01/13 07:47:20;;;;;;;103.88;57.95;;;;;;;;;;5095025;28;20074;-42
2022/01/13 07:49:46;;;;;;;110.55;57.88;;;;;;;;;;5094774;28;20021;-42
2022/01/13 07:52:12;;;;;;;114.95;60.35;;;;;;;;;;5094627;28;20395;-41
2022/01/13 07:54:39;;;;;;;103.85;56.58;;;;;;;;;;5094700;28;20036;-41
2022/01/13 07:57:05;;;;;;;109.90;59.55;;;;;;;;;;5094476;28;20383;-41
2022/01/13 07:59:31;;;;;;;111.35;59.97;;;;;;;;;;5095062;28;20355;-41
2022/01/13 08:01:58;;;;;;;114.97;62.13;;;;;;;;;;5093258;28;20027;-41
2022/01/13 08:04:24;;;;;;;131.60;73.20;;;;;;;;;;5094111;28;20097;-38
2022/01/13 08:06:50;;;;;;;104.28;57.55;;;;;;;;;;5093522;28;20036;-40
2022/01/13 08:09:17;;;;;;;111.22;57.70;;;;;;;;;;5093892;28;20016;-41
2022/01/13 08:11:44;;;;;;;130.77;69.32;;;;;;;;;;5093883;28;20381;-40
2022/01/13 08:14:10;;;;;;;119.40;69.03;;;;;;;;;;5093892;28;20020;-41
2022/01/13 08:16:41;;;;;;;116.10;65.45;;;;;;;;;;5093797;28;20024;-39
2022/01/13 08:21:52;;;;;;;94.97;51.90;;;;;;;;;;5093802;28;20043;-40
2022/01/13 08:24:18;;;;;;;82.50;48.17;;;;;;;;;;5093754;28;20020;-42
2022/01/13 08:26:44;;;;;;;103.93;61.20;;;;;;;;;;5093576;28;20457;-42
2022/01/13 08:29:10;;;;;;;109.75;58.17;;;;;;;;;;5093363;28;20055;-42
2022/01/13 08:31:36;;;;;;;63.85;38.45;;;;;;;;;;5093585;28;20020;-41
2022/01/13 08:34:02;;;;;;;83.32;50.92;;;;;;;;;;5093701;28;20469;-42
2022/01/13 08:36:28;;;;;;;62.33;40.50;;;;;;;;;;5093851;28;20028;-41
2022/01/13 08:38:54;;;;;;;59.05;39.25;;;;;;;;;;5094106;28;20455;-41
2022/01/13 08:41:20;;;;;;;54.30;36.63;;;;;;;;;;5092132;28;20026;-43
2022/01/13 08:43:46;;;;;;;68.10;41.30;;;;;;;;;;5094067;28;20525;-42
2022/01/13 08:46:13;;;;;;;68.45;42.70;;;;;;;;;;5094249;28;20085;-41
2022/01/13 08:48:39;;;;;;;59.30;38.40;;;;;;;;;;5093633;28;20020;-41
2022/01/13 08:51:05;;;;;;;61.83;40.97;;;;;;;;;;5093662;28;20028;-42
2022/01/13 08:53:31;;;;;;;62.80;41.05;;;;;;;;;;5093797;28;20016;-44
2022/01/13 08:55:58;;;;;;;57.33;39.20;;;;;;;;;;5093616;28;20024;-42
2022/01/13 08:58:25;;;;;;;60.67;38.83;;;;;;;;;;5093640;28;20031;-43
2022/01/13 09:00:52;;;;;;;59.40;38.45;;;;;;;;;;5093706;28;20035;-42
2022/01/13 09:03:18;;;;;;;55.67;34.97;;;;;;;;;;5093552;28;20027;-42
2022/01/13 09:05:44;;;;;;;50.83;34.50;;;;;;;;;;5093799;28;20032;-41
2022/01/13 09:08:11;;;;;;;51.85;34.83;;;;;;;;;;5093484;28;20161;-41
2022/01/13 09:10:39;;;;;;;48.10;32.75;;;;;;;;;;5093550;28;20085;-42
2022/01/13 09:13:06;;;;;;;51.53;32.60;;;;;;;;;;5093546;28;20039;-41
2022/01/13 09:17:59;;;;;;;48.05;33.78;;;;;;;;;;5093405;28;20111;-42
2022/01/13 09:20:26;;;;;;;46.60;32.17;;;;;;;;;;5093167;28;20371;-41
2022/01/13 09:22:52;;;;;;;45.75;32.20;;;;;;;;;;5092160;28;20523;-41
2022/01/13 09:25:18;;;;;;;47.33;33.13;;;;;;;;;;5093425;28;20099;-41
2022/01/13 09:27:44;;;;;;;46.70;32.58;;;;;;;;;;5093292;28;20558;-41
2022/01/13 09:30:12;;;;;;;58.33;38.22;;;;;;;;;;5091964;28;20481;-42
2022/01/13 09:32:38;;;;;;;57.25;39.28;;;;;;;;;;5093248;28;20492;-41
2022/01/13 09:35:05;;;;;;;48.45;35.60;;;;;;;;;;5093101;28;20045;-41
2022/01/13 09:37:31;;;;;;;54.60;39.55;;;;;;;;;;5093266;28;20031;-41
2022/01/13 09:39:59;;;;;;;62.78;41.88;;;;;;;;;;5093330;28;20398;-42
2022/01/13 09:42:28;;;;;;;49.25;36.58;;;;;;;;;;5093288;28;20401;-42
2022/01/13 09:44:57;;;;;;;51.10;36.42;;;;;;;;;;5093182;28;20024;-43
2022/01/13 09:47:25;;;;;;;45.50;32.97;;;;;;;;;;5093229;28;20500;-44
2022/01/13 09:49:51;;;;;;;46.88;34.13;;;;;;;;;;5093170;28;20025;-41
2022/01/13 09:52:20;;;;;;;48.70;34.55;;;;;;;;;;5093077;28;20360;-41
2022/01/13 09:54:46;;;;;;;47.67;33.53;;;;;;;;;;5096344;28;20027;-45
2022/01/13 09:57:12;;;;;;;46.92;32.63;;;;;;;;;;5096933;28;20462;-42
2022/01/13 09:59:40;;;;;;;52.42;33.78;;;;;;;;;;5096813;28;20059;-43
2022/01/13 10:02:07;;;;;;;45.47;32.53;;;;;;;;;;5096919;28;20027;-42
2022/01/13 10:04:44;;;;;;;43.97;32.60;;;;;;;;;;5096799;28;20027;-42
2022/01/13 10:07:12;;;;;;;47.08;34.03;;;;;;;;;;5096641;28;20039;-43
2022/01/13 10:09:52;;;;;;;53.50;36.63;;;;;;;;;;5096936;28;20017;-43
2022/01/13 10:12:23;;;;;;;48.72;33.38;;;;;;;;;;5096847;28;20038;-43
2022/01/13 10:17:24;;;;;;;52.20;33.40;;;;;;;;;;5096676;28;20046;-42
2022/01/13 10:19:50;;;;;;;52.90;34.97;;;;;;;;;;5096629;28;20024;-43
2022/01/13 10:22:20;;;;;;;49.28;33.92;;;;;;;;;;5096533;28;20389;-43
2022/01/13 10:24:48;;;;;;;55.10;36.90;;;;;;;;;;5096672;28;20031;-43
2022/01/13 10:27:19;;;;;;;56.47;36.53;;;;;;;;;;5096685;28;20089;-43
2022/01/13 10:29:52;;;;;;;57.00;35.00;;;;;;;;;;5096344;28;20040;-42
2022/01/13 10:32:22;;;;;;;56.33;34.70;;;;;;;;;;5096278;28;20485;-47
2022/01/13 10:34:51;;;;;;;56.55;34.00;;;;;;;;;;5096694;28;20077;-42
2022/01/13 10:37:23;;;;;;;51.30;33.55;;;;;;;;;;5096329;28;20034;-43
2022/01/13 10:39:56;;;;;;;53.00;33.90;;;;;;;;;;5096132;28;20497;-42
2022/01/13 10:45:08;;;;;;;59.55;37.03;;;;;;;;;;5096214;28;20415;-40
2022/01/13 10:47:34;;;;;;;;;;;;;;;;;;5095252;28;20072;-40
2022/01/13 10:50:14;;;;;;;60.40;35.83;;;;;;;;;;5096038;28;20292;-42
2022/01/13 10:52:41;;;;;;;67.03;39.35;;;;;;;;;;5095797;28;20081;-40
2022/01/13 10:55:14;;;;;;;59.05;35.42;;;;;;;;;;5096051;28;20036;-40
2022/01/13 10:57:42;;;;;;;60.67;35.28;;;;;;;;;;5096117;28;20470;-40
2022/01/13 11:00:30;;;;;;;65.03;36.70;;;;;;;;;;5095903;28;20044;-40
2022/01/13 11:02:59;;;;;;;74.43;39.53;;;;;;;;;;5096261;28;20035;-40
2022/01/13 11:05:25;;;;;;;60.20;35.50;;;;;;;;;;5095115;28;20152;-42
2022/01/13 11:07:52;;;;;;;65.10;38.05;;;;;;;;;;5095475;28;20093;-42
2022/01/13 11:10:18;;;;;;;69.43;37.55;;;;;;;;;;5095764;28;20024;-40
2022/01/13 11:12:45;;;;;;;64.75;35.83;;;;;;;;;;5095633;28;20027;-40
2022/01/13 11:15:18;;;;;;;58.50;34.08;;;;;;;;;;5095625;28;20019;-40
2022/01/13 11:17:45;;;;;;;60.53;34.78;;;;;;;;;;5095416;28;20512;-40
2022/01/13 11:20:17;;;;;;;65.45;36.20;;;;;;;;;;5095380;28;20035;-40
2022/01/13 11:22:45;;;;;;;70.70;36.45;;;;;;;;;;5095469;28;20028;-40
2022/01/13 11:25:12;;;;;;;61.40;34.53;;;;;;;;;;5095441;28;20020;-40
2022/01/13 11:27:38;;;;;;;70.25;36.13;;;;;;;;;;5095065;28;20077;-40
2022/01/13 11:30:11;;;;;;;75.50;35.33;;;;;;;;;;5095387;28;20466;-41
2022/01/13 11:32:37;;;;;;;62.90;32.00;;;;;;;;;;5095163;28;20054;-41
2022/01/13 11:35:03;;;;;;;54.42;32.17;;;;;;;;;;5095130;28;20538;-41
2022/01/13 11:37:34;;;;;;;56.08;31.17;;;;;;;;;;5095006;28;20030;-41
2022/01/13 11:40:00;;;;;;;71.20;38.40;;;;;;;;;;5095062;28;20048;-41
2022/01/13 11:42:26;;;;;;;84.07;40.33;;;;;;;;;;5095452;28;20069;-40
2022/01/13 11:45:22;;;;;;;88.95;36.92;;;;;;;;;;5093840;28;20107;-41
2022/01/13 11:47:49;;;;;;;65.30;36.28;;;;;;;;;;5055585;28;20078;-42
2022/01/13 11:50:30;;;;;;;60.13;35.15;;;;;;;;;;5072430;28;20021;-40
2022/01/13 11:52:56;;;;;;;61.75;33.83;;;;;;;;;;5072474;28;20529;-42
2022/01/13 11:55:29;;;;;;;64.97;35.42;;;;;;;;;;5072541;28;20380;-42
2022/01/13 11:58:14;;;;;;;57.10;32.33;;;;;;;;;;5072180;28;20127;-42
2022/01/13 12:00:41;;;;;;;61.22;33.78;;;;;;;;;;5072276;28;20044;-40
2022/01/13 12:03:22;;;;;;;65.32;34.90;;;;;;;;;;5072400;28;20154;-41
2022/01/13 12:05:48;;;;;;;;;;;;;;;;;;5072844;28;20040;-40
2022/01/13 12:08:32;;;;;;;59.47;33.17;;;;;;;;;;5072073;28;19936;-41
2022/01/13 12:10:58;;;;;;;57.22;31.70;;;;;;;;;;5072206;28;20547;-42
2022/01/13 12:13:33;;;;;;;61.10;33.35;;;;;;;;;;5072129;28;20024;-42
2022/01/13 12:16:00;;;;;;;58.05;32.33;;;;;;;;;;5071186;28;20036;-40
2022/01/13 12:18:44;;;;;;;60.22;32.90;;;;;;;;;;5071868;28;20055;-42
2022/01/13 12:21:27;;;;;;;63.00;31.80;;;;;;;;;;5071809;28;20029;-41
2022/01/13 12:23:53;;;;;;;66.95;34.40;;;;;;;;;;5079917;28;20489;-42
2022/01/13 12:26:34;;;;;;;64.25;34.15;;;;;;;;;;5094152;28;20060;-40
2022/01/13 12:29:19;;;;;;;60.63;31.60;;;;;;;;;;5093917;28;20508;-41
2022/01/13 12:31:51;;;;;;;52.63;30.38;;;;;;;;;;5094078;28;20031;-42
2022/01/13 12:34:29;;;;;;;58.25;30.75;;;;;;;;;;5094179;28;20031;-41
2022/01/13 12:36:55;;;;;;;63.38;32.72;;;;;;;;;;5094145;28;20028;-42
2022/01/13 12:39:22;;;;;;;65.97;35.40;;;;;;;;;;5094148;28;20031;-40
2022/01/13 12:42:00;;;;;;;77.38;37.08;;;;;;;;;;5093923;28;20034;-40
2022/01/13 12:47:12;;;;;;;72.72;37.83;;;;;;;;;;5093663;28;20090;-40
2022/01/13 12:49:39;;;;;;;66.93;32.28;;;;;;;;;;5093954;28;20050;-41
2022/01/13 12:52:05;;;;;;;61.03;34.53;;;;;;;;;;5093825;28;20020;-41
2022/01/13 12:54:32;;;;;;;73.10;38.50;;;;;;;;;;5093556;28;20059;-41
2022/01/13 12:57:02;;;;;;;90.80;49.15;;;;;;;;;;5093628;28;20043;-41
2022/01/13 12:59:28;;;;;;;67.47;35.95;;;;;;;;;;5093703;28;20028;-41
2022/01/13 13:02:00;;;;;;;65.82;34.35;;;;;;;;;;5093816;28;20024;-42
2022/01/13 13:04:29;;;;;;;72.95;37.15;;;;;;;;;;5093742;28;20091;-41
2022/01/13 13:06:56;;;;;;;75.25;39.55;;;;;;;;;;5093380;28;20044;-41
2022/01/13 13:09:24;;;;;;;72.70;38.78;;;;;;;;;;5093424;28;20024;-41
2022/01/13 13:11:52;;;;;;;75.45;37.67;;;;;;;;;;5093560;28;20401;-40
2022/01/13 13:14:32;;;;;;;76.38;39.88;;;;;;;;;;5093673;28;20020;-40
2022/01/13 13:16:58;;;;;;;81.07;40.58;;;;;;;;;;5093395;28;20032;-40
2022/01/13 13:19:24;;;;;;;77.28;40.03;;;;;;;;;;5093412;28;20035;-42
2022/01/13 13:21:53;;;;;;;73.45;39.50;;;;;;;;;;5093730;28;20085;-42
2022/01/13 13:24:23;;;;;;;71.93;37.90;;;;;;;;;;5093262;28;20039;-41
2022/01/13 13:26:52;;;;;;;74.43;36.30;;;;;;;;;;5093062;28;20028;-41
2022/01/13 13:29:25;;;;;;;69.50;33.88;;;;;;;;;;5097433;28;20456;-42
2022/01/13 13:31:55;;;;;;;64.95;35.63;;;;;;;;;;5097421;28;20024;-41
2022/01/13 13:34:21;;;;;;;63.42;33.33;;;;;;;;;;5097644;28;20026;-41
2022/01/13 13:36:48;;;;;;;70.20;35.38;;;;;;;;;;5097607;28;20051;-43
2022/01/13 13:39:18;;;;;;;63.33;33.00;;;;;;;;;;5097445;28;20024;-41
2022/01/13 13:41:45;;;;;;;66.40;33.20;;;;;;;;;;5097360;28;20020;-42
2022/01/13 13:44:15;;;;;;;69.68;35.50;;;;;;;;;;5097598;28;20024;-41
2022/01/13 13:46:42;;;;;;;72.93;36.67;;;;;;;;;;5097227;28;20466;-42
2022/01/13 13:49:08;;;;;;;70.80;36.20;;;;;;;;;;5097684;28;20024;-42
2022/01/13 13:51:37;;;;;;;70.95;35.78;;;;;;;;;;5097347;28;20021;-42
2022/01/13 13:54:07;;;;;;;72.93;39.13;;;;;;;;;;5097242;28;20081;-41
2022/01/13 13:56:35;;;;;;;74.95;39.97;;;;;;;;;;5097101;28;20028;-41
2022/01/13 13:59:01;;;;;;;73.07;39.50;;;;;;;;;;5097140;28;20099;-41
2022/01/13 14:01:28;;;;;;;67.97;35.70;;;;;;;;;;5095840;28;20520;-42
2022/01/13 14:04:01;;;;;;;70.25;35.60;;;;;;;;;;5096633;28;20028;-41
2022/01/13 14:06:43;;;;;;;65.60;35.22;;;;;;;;;;5096635;28;20358;-42
2022/01/13 14:09:11;;;;;;;69.15;36.17;;;;;;;;;;5096617;28;20039;-42
2022/01/13 14:11:49;;;;;;;70.47;34.15;;;;;;;;;;5096734;28;20023;-42
2022/01/13 14:14:16;;;;;;;73.82;35.92;;;;;;;;;;5096791;28;20517;-42
2022/01/13 14:16:43;;;;;;;73.55;38.22;;;;;;;;;;5096774;28;20111;-43
2022/01/13 14:19:12;;;;;;;73.72;38.92;;;;;;;;;;5096532;28;20395;-43
2022/01/13 14:21:52;;;;;;;72.07;38.42;;;;;;;;;;5092432;28;20024;-43
2022/01/13 14:24:31;;;;;;;67.85;35.42;;;;;;;;;;5093502;28;20020;-44
2022/01/13 14:27:13;;;;;;;73.00;37.58;;;;;;;;;;5093442;28;20123;-42
2022/01/13 14:29:42;;;;;;;63.25;33.78;;;;;;;;;;5093642;28;20122;-42
2022/01/13 14:32:16;;;;;;;130.07;51.65;;;;;;;;;;5095830;28;20070;-41
2022/01/13 14:34:46;;;;;;;69.03;34.95;;;;;;;;;;5093941;28;20042;-42
2022/01/13 14:37:13;;;;;;;67.13;34.90;;;;;;;;;;5095665;28;20028;-42
2022/01/13 14:39:40;;;;;;;68.20;35.67;;;;;;;;;;5094791;28;20039;-42
2022/01/13 14:42:10;;;;;;;67.57;36.17;;;;;;;;;;5095867;28;20065;-41
2022/01/13 14:44:37;;;;;;;71.75;36.58;;;;;;;;;;5093428;28;20031;-42
2022/01/13 14:47:07;;;;;;;66.88;34.97;;;;;;;;;;5095496;28;20036;-41
2022/01/13 14:49:35;;;;;;;78.50;38.50;;;;;;;;;;5092549;28;20085;-41
2022/01/13 14:52:03;;;;;;;94.78;46.45;;;;;;;;;;5095643;28;20036;-42
2022/01/13 14:54:31;;;;;;;72.38;38.08;;;;;;;;;;5095789;28;20163;-43